Terminal Aerodrome Forecast
Issued by NWS

Home | Current Version | Previous Version | Text Only | Print | Product List | Glossary On
Versions: 1 2 3 4 5 6 7 8 9 10 11 12 13 14 15
195
FTUS41 KILN 261739
TAFLCK
TAF
KLCK 261739Z 2618/2718 18009KT 3SM -SHRA BR SCT025 OVC035
     FM261900 18010KT P6SM VCSH SCT025 OVC040
     FM262300 18006KT P6SM -SHRA VCTS SCT025CB BKN060
      TEMPO 2700/2702 2SM -TSRA BR BKN015CB
     FM270200 19006KT P6SM VCSH SCT025 BKN035
     FM270500 23006KT P6SM BKN015
     FM271400 23005KT P6SM BKN021 BKN025=

USA.gov is the U.S. government's official web portal to all federal, state and local government web resources and services.